Terminal Aerodrome Forecast
Issued by NWS Wilmington, OH

Home | Current Version | Previous Version | Text Only | Print | Product List | Glossary On
Versions: 1 2 3 4 5 6 7 8 9 10 11 12 13 14 15 16 17 18 19 20 21 22 23 24
376
FTUS41 KILN 161746
TAFDAY
TAF
KDAY 161746Z 1618/1718 23015G25KT P6SM FEW250
     FM162100 21010KT P6SM SCT250
     FM171000 19007KT P6SM BKN250
     FM171700 19008KT P6SM OVC120=

USA.gov is the U.S. government's official web portal to all federal, state and local government web resources and services.